Taurus — WDB5562 — position and weather

sailwx.info

Track history (hours):
 
Tides and Currents Weather Stations Pressure Air Temp Water Temp Dewpoint Dewpoint Depression Visibility Wind Speed Wind Dir Waves Ship Positions

Taurus

Owner: Kirby Offshore Marine, LLC, Seattle, WA. More information available from US FCC via Universal Licensing System and Coast Guard Vessel Documentation Center.

Last reported at 2018-Apr-23 23:00 UTC. Time now 2018-Apr-23 23:27 UTC.
Position N 39°54' W 075°12'.

Length 24 m.

Type: Ship (hazmat cat B). MMSI: 366910990.

Date/timePositionNaut miles runAvg speedWind from/ knotsBaromVisibWave heightAir tempDewpointWater temp
2018-Apr-23 23:00N 39°54' W 075°12'0 0.0
2018-Apr-23 22:30N 39°54' W 075°12'0 0.0
2018-Apr-23 22:00N 39°54' W 075°12'0 0.0
2018-Apr-23 21:30N 39°54' W 075°12'0 0.0
2018-Apr-23 21:00N 39°54' W 075°12'0 0.0
2018-Apr-23 20:30N 39°54' W 075°12'0 0.0
2018-Apr-23 20:01N 39°54' W 075°12'0 0.0
2018-Apr-23 19:30N 39°54' W 075°12'0 0.0
2018-Apr-23 19:01N 39°54' W 075°12'0 0.0
2018-Apr-23 18:31N 39°54' W 075°12'0 0.0
2018-Apr-23 18:00N 39°54' W 075°12'0 0.0
2018-Apr-23 17:31N 39°54' W 075°12'0 0.0
2018-Apr-23 17:00N 39°54' W 075°12'0 0.0
2018-Apr-23 16:30N 39°54' W 075°12'0 0.0
2018-Apr-23 16:00N 39°54' W 075°12'0 0.0
2018-Apr-23 15:29N 39°54' W 075°12'0 0.0
2018-Apr-23 15:00N 39°54' W 075°12'0 0.0
2018-Apr-23 14:30N 39°54' W 075°12'0 0.0
2018-Apr-23 14:01N 39°54' W 075°12'0 0.0
2018-Apr-23 13:31N 39°54' W 075°12'0 0.0
2018-Apr-23 13:00N 39°54' W 075°12'0 0.0
2018-Apr-23 12:30N 39°54' W 075°12'0 0.0
2018-Apr-23 12:00N 39°54' W 075°12'0 0.0
2018-Apr-23 11:30N 39°54' W 075°12'0 0.0
2018-Apr-23 11:01N 39°54' W 075°12'0 0.0
2018-Apr-23 10:31N 39°54' W 075°12'0 0.0
2018-Apr-23 10:01N 39°54' W 075°12'0 0.0
2018-Apr-23 09:31N 39°54' W 075°12'0 0.0
2018-Apr-23 09:00N 39°54' W 075°12'0 0.0
2018-Apr-23 08:30N 39°54' W 075°12'0 0.0
2018-Apr-23 08:00N 39°54' W 075°12'0 0.0
2018-Apr-23 07:30N 39°54' W 075°12'0 0.0
2018-Apr-23 07:00N 39°54' W 075°12'0 0.0
2018-Apr-23 06:30N 39°54' W 075°12'0 0.0
2018-Apr-23 06:00N 39°54' W 075°12'0 0.0
2018-Apr-23 05:30N 39°54' W 075°12'0 0.0
2018-Apr-23 05:00N 39°54' W 075°12'0 0.0
2018-Apr-23 04:31N 39°54' W 075°12'0 0.0
2018-Apr-23 04:00N 39°54' W 075°12'0 0.0
2018-Apr-23 03:31N 39°54' W 075°12'0 0.0
2018-Apr-23 03:01N 39°54' W 075°12'0 0.0
2018-Apr-23 02:31N 39°54' W 075°12'0 0.0
2018-Apr-23 02:00N 39°54' W 075°12'0 0.0
2018-Apr-23 01:30N 39°54' W 075°12'0 0.0
2018-Apr-23 01:01N 39°54' W 075°12'0 0.0
2018-Apr-23 00:31N 39°54' W 075°12'0 0.0
2018-Apr-22 23:57N 39°54' W 075°12'1 1.5
2018-Apr-22 23:30N 39°54' W 075°13'0 0.7
2018-Apr-22 22:59N 39°54' W 075°12'3 6.2
2018-Apr-22 22:28N 39°54' W 075°08'4 7.7
2018-Apr-22 21:59N 39°57' W 075°08'3 5.9
2018-Apr-22 21:30N 39°59' W 075°05'1 1.7
2018-Apr-22 21:00N 39°59' W 075°06'4 8.1
2018-Apr-22 20:29N 39°55' W 075°08'3 7.2
2018-Apr-22 20:00N 39°53' W 075°12'1 2.1
2018-Apr-22 19:27N 39°54' W 075°13'0 0.1
2018-Apr-22 18:59N 39°54' W 075°13'1 2.4
2018-Apr-22 18:29N 39°53' W 075°12'5 0.1
2018-Apr-20 22:50N 39°57' W 075°08'514.1
2018-Apr-20 22:29N 39°54' W 075°13'0 0.9
2018-Apr-20 22:01N 39°54' W 075°12'2 3.5
2018-Apr-20 21:30N 39°53' W 075°10'2 4.6
2018-Apr-20 21:00N 39°54' W 075°08'3 5.3
2018-Apr-20 20:30N 39°57' W 075°08'1 2.9
2018-Apr-20 20:00N 39°58' W 075°07'2 3.8
2018-Apr-20 19:30N 39°59' W 075°05'0 0.0
2018-Apr-20 19:00N 39°59' W 075°05'0 0.0
2018-Apr-20 18:30N 39°59' W 075°05'0 0.0
2018-Apr-20 18:00N 39°59' W 075°05'0 0.0
2018-Apr-20 17:30N 39°59' W 075°05'0 0.0
2018-Apr-20 17:01N 39°59' W 075°05'0 0.0
2018-Apr-20 16:30N 39°59' W 075°05'0 0.0
2018-Apr-20 16:00N 39°59' W 075°05'0 0.0
2018-Apr-20 15:30N 39°59' W 075°05'0 0.0
2018-Apr-20 15:00N 39°59' W 075°05'0 0.0
2018-Apr-20 14:30N 39°59' W 075°05'2 4.6
2018-Apr-20 14:00N 39°58' W 075°07'4 7.1
2018-Apr-20 13:31N 39°54' W 075°08'4 7.3
2018-Apr-20 13:00N 39°53' W 075°12'4 7.2
2018-Apr-20 12:31N 39°51' W 075°16'1 2.5
2018-Apr-20 11:59N 39°51' W 075°18'4 7.7
2018-Apr-20 11:30N 39°52' W 075°13'4 7.7
2018-Apr-20 10:58N 39°54' W 075°08'4 8.0
2018-Apr-20 10:30N 39°57' W 075°08'1 2.5
2018-Apr-20 10:00N 39°58' W 075°07'2 3.4
2018-Apr-20 09:29N 39°59' W 075°05'1 1.3
2018-Apr-20 08:59N 39°59' W 075°05'4 8.0
2018-Apr-20 08:30N 39°55' W 075°08'4 7.3
2018-Apr-20 08:00N 39°53' W 075°12'1 2.6
2018-Apr-20 07:30N 39°54' W 075°13'1 0.1
2018-Apr-19 21:57N 39°53' W 075°12'4 8.7
2018-Apr-19 21:30N 39°51' W 075°16'5 9.2
2018-Apr-19 21:00N 39°50' W 075°22'1 2.3
2018-Apr-19 20:30N 39°50' W 075°23'0 0.4
2018-Apr-19 20:00N 39°50' W 075°23'0 0.1
2018-Apr-19 19:30N 39°50' W 075°23'1 2.0
2018-Apr-19 19:00N 39°50' W 075°22'2 3.1
2018-Apr-19 18:30N 39°51' W 075°20'4 7.3
2018-Apr-19 18:00N 39°51' W 075°15'1 2.1
2018-Apr-19 17:30N 39°51' W 075°14'1 2.0
2018-Apr-19 17:00N 39°51' W 075°15'4 8.2
2018-Apr-19 16:30N 39°51' W 075°20'1 2.3
2018-Apr-19 16:00N 39°50' W 075°22'0 0.0
2018-Apr-19 15:30N 39°50' W 075°22'3 5.0
2018-Apr-19 15:00N 39°51' W 075°18'1 1.0
2018-Apr-19 14:30N 39°51' W 075°18'0 0.0
2018-Apr-19 14:00N 39°51' W 075°18'0 0.1
2018-Apr-19 13:31N 39°51' W 075°18'0 0.3
2018-Apr-19 13:00N 39°51' W 075°18'0 0.2
2018-Apr-19 12:31N 39°51' W 075°18'0 0.1
2018-Apr-19 12:00N 39°51' W 075°18'2 3.3
2018-Apr-19 11:30N 39°51' W 075°20'2 3.5
2018-Apr-19 11:00N 39°50' W 075°22'1 2.1
2018-Apr-19 10:30N 39°50' W 075°23'0 0.0
2018-Apr-19 10:00N 39°50' W 075°23'0 0.0
2018-Apr-19 00:04N 39°50' W 075°23'0 0.1
2018-Apr-19 00:00N 39°50' W 075°23'510.3
2018-Apr-18 23:30N 39°51' W 075°17'510.9
2018-Apr-18 23:00N 39°53' W 075°10'5 9.5
2018-Apr-18 22:31N 39°57' W 075°08'0 0.2
2018-Apr-18 22:00N 39°57' W 075°08'0 0.2
2018-Apr-18 21:30N 39°57' W 075°08'0 0.1
2018-Apr-18 21:00N 39°57' W 075°08'0 0.0
2018-Apr-18 20:30N 39°57' W 075°08'0 0.0
2018-Apr-18 20:00N 39°57' W 075°08'0 0.0
2018-Apr-18 19:30N 39°57' W 075°08'0 0.1
2018-Apr-18 19:00N 39°57' W 075°08'0 0.0
2018-Apr-18 18:30N 39°57' W 075°08'0 0.0
2018-Apr-18 18:00N 39°57' W 075°08'0 0.0
2018-Apr-18 17:30N 39°57' W 075°08'0 0.1
2018-Apr-18 17:00N 39°57' W 075°08'0 0.1
2018-Apr-18 16:30N 39°57' W 075°08'3 6.5
2018-Apr-18 16:00N 39°54' W 075°08'3 6.0
2018-Apr-18 15:30N 39°53' W 075°12'0 0.5
2018-Apr-18 15:00N 39°54' W 075°12'0 0.0
2018-Apr-18 14:30N 39°54' W 075°12'0 0.0
2018-Apr-18 14:00N 39°54' W 075°12'0 0.0
2018-Apr-18 13:30N 39°54' W 075°12'0 0.0
2018-Apr-18 13:00N 39°54' W 075°12'0 0.0
2018-Apr-18 12:30N 39°54' W 075°12'0 0.0
2018-Apr-18 12:01N 39°54' W 075°12'0 0.0
2018-Apr-18 11:31N 39°54' W 075°12'0 0.0
2018-Apr-18 11:00N 39°54' W 075°12'0 0.0
2018-Apr-18 10:31N 39°54' W 075°12'0 0.0
2018-Apr-18 10:00N 39°54' W 075°12'0 0.3
2018-Apr-18 09:30N 39°54' W 075°12'3 5.0
2018-Apr-18 09:00N 39°52' W 075°14'3 6.1
2018-Apr-18 08:30N 39°51' W 075°18'3 6.5
2018-Apr-18 08:00N 39°50' W 075°22'2 3.9
2018-Apr-18 07:30N 39°49' W 075°24'0 0.0
2018-Apr-18 07:00N 39°49' W 075°24'1 2.2
2018-Apr-18 06:30N 39°50' W 075°23'0 0.0
2018-Apr-18 06:00N 39°50' W 075°23'  
2018-Apr-14 19:00N 39°50' W 075°23'5 9.1
2018-Apr-14 18:30N 39°51' W 075°17'5 9.2
2018-Apr-14 18:00N 39°53' W 075°12'1 1.1
2018-Apr-14 17:30N 39°53' W 075°11'0 0.3
2018-Apr-14 17:00N 39°53' W 075°11'4 7.6
2018-Apr-14 16:31N 39°51' W 075°15'510.6
2018-Apr-14 16:00N 39°50' W 075°22'1 0.1
2018-Apr-14 06:46N 39°50' W 075°23'2 5.5
2018-Apr-14 06:30N 39°49' W 075°25'1 1.1
2018-Apr-14 06:00N 39°48' W 075°25'0 0.1
2018-Apr-14 05:30N 39°48' W 075°25'1 1.2
2018-Apr-14 05:00N 39°49' W 075°24'0 0.3
2018-Apr-14 04:30N 39°49' W 075°24'1 2.5
2018-Apr-14 04:00N 39°50' W 075°23'0 0.0
2018-Apr-14 03:30N 39°50' W 075°23'  
Track history (hours):
 
Tides and Currents Weather Stations Pressure Air Temp Water Temp Dewpoint Dewpoint Depression Visibility Wind Speed Wind Dir Waves Ship Positions

Taurus

Owner: Kirby Offshore Marine, LLC, Seattle, WA. More information available from US FCC via Universal Licensing System and Coast Guard Vessel Documentation Center.

Last reported at 2018-Apr-23 23:00 UTC. Time now 2018-Apr-23 23:27 UTC.
Position N 39°54' W 075°12'.

Length 24 m.

Type: Ship (hazmat cat B). MMSI: 366910990.

Date/timePositionNaut miles runAvg speedWind from/ knotsBaromVisibWave heightAir tempDewpointWater temp
2018-Apr-23 23:00N 39°54' W 075°12'0 0.0
2018-Apr-23 22:30N 39°54' W 075°12'0 0.0
2018-Apr-23 22:00N 39°54' W 075°12'0 0.0
2018-Apr-23 21:30N 39°54' W 075°12'0 0.0
2018-Apr-23 21:00N 39°54' W 075°12'0 0.0
2018-Apr-23 20:30N 39°54' W 075°12'0 0.0
2018-Apr-23 20:01N 39°54' W 075°12'0 0.0
2018-Apr-23 19:30N 39°54' W 075°12'0 0.0
2018-Apr-23 19:01N 39°54' W 075°12'0 0.0
2018-Apr-23 18:31N 39°54' W 075°12'0 0.0
2018-Apr-23 18:00N 39°54' W 075°12'0 0.0
2018-Apr-23 17:31N 39°54' W 075°12'0 0.0
2018-Apr-23 17:00N 39°54' W 075°12'0 0.0
2018-Apr-23 16:30N 39°54' W 075°12'0 0.0
2018-Apr-23 16:00N 39°54' W 075°12'0 0.0
2018-Apr-23 15:29N 39°54' W 075°12'0 0.0
2018-Apr-23 15:00N 39°54' W 075°12'0 0.0
2018-Apr-23 14:30N 39°54' W 075°12'0 0.0
2018-Apr-23 14:01N 39°54' W 075°12'0 0.0
2018-Apr-23 13:31N 39°54' W 075°12'0 0.0
2018-Apr-23 13:00N 39°54' W 075°12'0 0.0
2018-Apr-23 12:30N 39°54' W 075°12'0 0.0
2018-Apr-23 12:00N 39°54' W 075°12'0 0.0
2018-Apr-23 11:30N 39°54' W 075°12'0 0.0
2018-Apr-23 11:01N 39°54' W 075°12'0 0.0
2018-Apr-23 10:31N 39°54' W 075°12'0 0.0
2018-Apr-23 10:01N 39°54' W 075°12'0 0.0
2018-Apr-23 09:31N 39°54' W 075°12'0 0.0
2018-Apr-23 09:00N 39°54' W 075°12'0 0.0
2018-Apr-23 08:30N 39°54' W 075°12'0 0.0
2018-Apr-23 08:00N 39°54' W 075°12'0 0.0
2018-Apr-23 07:30N 39°54' W 075°12'0 0.0
2018-Apr-23 07:00N 39°54' W 075°12'0 0.0
2018-Apr-23 06:30N 39°54' W 075°12'0 0.0
2018-Apr-23 06:00N 39°54' W 075°12'0 0.0
2018-Apr-23 05:30N 39°54' W 075°12'0 0.0
2018-Apr-23 05:00N 39°54' W 075°12'0 0.0
2018-Apr-23 04:31N 39°54' W 075°12'0 0.0
2018-Apr-23 04:00N 39°54' W 075°12'0 0.0
2018-Apr-23 03:31N 39°54' W 075°12'0 0.0
2018-Apr-23 03:01N 39°54' W 075°12'0 0.0
2018-Apr-23 02:31N 39°54' W 075°12'0 0.0
2018-Apr-23 02:00N 39°54' W 075°12'0 0.0
2018-Apr-23 01:30N 39°54' W 075°12'0 0.0
2018-Apr-23 01:01N 39°54' W 075°12'0 0.0
2018-Apr-23 00:31N 39°54' W 075°12'0 0.0
2018-Apr-22 23:57N 39°54' W 075°12'1 1.5
2018-Apr-22 23:30N 39°54' W 075°13'0 0.7
2018-Apr-22 22:59N 39°54' W 075°12'3 6.2
2018-Apr-22 22:28N 39°54' W 075°08'4 7.7
2018-Apr-22 21:59N 39°57' W 075°08'3 5.9
2018-Apr-22 21:30N 39°59' W 075°05'1 1.7
2018-Apr-22 21:00N 39°59' W 075°06'4 8.1
2018-Apr-22 20:29N 39°55' W 075°08'3 7.2
2018-Apr-22 20:00N 39°53' W 075°12'1 2.1
2018-Apr-22 19:27N 39°54' W 075°13'0 0.1
2018-Apr-22 18:59N 39°54' W 075°13'1 2.4
2018-Apr-22 18:29N 39°53' W 075°12'5 0.1
2018-Apr-20 22:50N 39°57' W 075°08'514.1
2018-Apr-20 22:29N 39°54' W 075°13'0 0.9
2018-Apr-20 22:01N 39°54' W 075°12'2 3.5
2018-Apr-20 21:30N 39°53' W 075°10'2 4.6
2018-Apr-20 21:00N 39°54' W 075°08'3 5.3
2018-Apr-20 20:30N 39°57' W 075°08'1 2.9
2018-Apr-20 20:00N 39°58' W 075°07'2 3.8
2018-Apr-20 19:30N 39°59' W 075°05'0 0.0
2018-Apr-20 19:00N 39°59' W 075°05'0 0.0
2018-Apr-20 18:30N 39°59' W 075°05'0 0.0
2018-Apr-20 18:00N 39°59' W 075°05'0 0.0
2018-Apr-20 17:30N 39°59' W 075°05'0 0.0
2018-Apr-20 17:01N 39°59' W 075°05'0 0.0
2018-Apr-20 16:30N 39°59' W 075°05'0 0.0
2018-Apr-20 16:00N 39°59' W 075°05'0 0.0
2018-Apr-20 15:30N 39°59' W 075°05'0 0.0
2018-Apr-20 15:00N 39°59' W 075°05'0 0.0
2018-Apr-20 14:30N 39°59' W 075°05'2 4.6
2018-Apr-20 14:00N 39°58' W 075°07'4 7.1
2018-Apr-20 13:31N 39°54' W 075°08'4 7.3
2018-Apr-20 13:00N 39°53' W 075°12'4 7.2
2018-Apr-20 12:31N 39°51' W 075°16'1 2.5
2018-Apr-20 11:59N 39°51' W 075°18'4 7.7
2018-Apr-20 11:30N 39°52' W 075°13'4 7.7
2018-Apr-20 10:58N 39°54' W 075°08'4 8.0
2018-Apr-20 10:30N 39°57' W 075°08'1 2.5
2018-Apr-20 10:00N 39°58' W 075°07'2 3.4
2018-Apr-20 09:29N 39°59' W 075°05'1 1.3
2018-Apr-20 08:59N 39°59' W 075°05'4 8.0
2018-Apr-20 08:30N 39°55' W 075°08'4 7.3
2018-Apr-20 08:00N 39°53' W 075°12'1 2.6
2018-Apr-20 07:30N 39°54' W 075°13'1 0.1
2018-Apr-19 21:57N 39°53' W 075°12'4 8.7
2018-Apr-19 21:30N 39°51' W 075°16'5 9.2
2018-Apr-19 21:00N 39°50' W 075°22'1 2.3
2018-Apr-19 20:30N 39°50' W 075°23'0 0.4
2018-Apr-19 20:00N 39°50' W 075°23'0 0.1
2018-Apr-19 19:30N 39°50' W 075°23'1 2.0
2018-Apr-19 19:00N 39°50' W 075°22'2 3.1
2018-Apr-19 18:30N 39°51' W 075°20'4 7.3
2018-Apr-19 18:00N 39°51' W 075°15'1 2.1
2018-Apr-19 17:30N 39°51' W 075°14'1 2.0
2018-Apr-19 17:00N 39°51' W 075°15'4 8.2
2018-Apr-19 16:30N 39°51' W 075°20'1 2.3
2018-Apr-19 16:00N 39°50' W 075°22'0 0.0
2018-Apr-19 15:30N 39°50' W 075°22'3 5.0
2018-Apr-19 15:00N 39°51' W 075°18'1 1.0
2018-Apr-19 14:30N 39°51' W 075°18'0 0.0
2018-Apr-19 14:00N 39°51' W 075°18'0 0.1
2018-Apr-19 13:31N 39°51' W 075°18'0 0.3
2018-Apr-19 13:00N 39°51' W 075°18'0 0.2
2018-Apr-19 12:31N 39°51' W 075°18'0 0.1
2018-Apr-19 12:00N 39°51' W 075°18'2 3.3
2018-Apr-19 11:30N 39°51' W 075°20'2 3.5
2018-Apr-19 11:00N 39°50' W 075°22'1 2.1
2018-Apr-19 10:30N 39°50' W 075°23'0 0.0
2018-Apr-19 10:00N 39°50' W 075°23'0 0.0
2018-Apr-19 00:04N 39°50' W 075°23'0 0.1
2018-Apr-19 00:00N 39°50' W 075°23'510.3
2018-Apr-18 23:30N 39°51' W 075°17'510.9
2018-Apr-18 23:00N 39°53' W 075°10'5 9.5
2018-Apr-18 22:31N 39°57' W 075°08'0 0.2
2018-Apr-18 22:00N 39°57' W 075°08'0 0.2
2018-Apr-18 21:30N 39°57' W 075°08'0 0.1
2018-Apr-18 21:00N 39°57' W 075°08'0 0.0
2018-Apr-18 20:30N 39°57' W 075°08'0 0.0
2018-Apr-18 20:00N 39°57' W 075°08'0 0.0
2018-Apr-18 19:30N 39°57' W 075°08'0 0.1
2018-Apr-18 19:00N 39°57' W 075°08'0 0.0
2018-Apr-18 18:30N 39°57' W 075°08'0 0.0
2018-Apr-18 18:00N 39°57' W 075°08'0 0.0
2018-Apr-18 17:30N 39°57' W 075°08'0 0.1
2018-Apr-18 17:00N 39°57' W 075°08'0 0.1
2018-Apr-18 16:30N 39°57' W 075°08'3 6.5
2018-Apr-18 16:00N 39°54' W 075°08'3 6.0
2018-Apr-18 15:30N 39°53' W 075°12'0 0.5
2018-Apr-18 15:00N 39°54' W 075°12'0 0.0
2018-Apr-18 14:30N 39°54' W 075°12'0 0.0
2018-Apr-18 14:00N 39°54' W 075°12'0 0.0
2018-Apr-18 13:30N 39°54' W 075°12'0 0.0
2018-Apr-18 13:00N 39°54' W 075°12'0 0.0
2018-Apr-18 12:30N 39°54' W 075°12'0 0.0
2018-Apr-18 12:01N 39°54' W 075°12'0 0.0
2018-Apr-18 11:31N 39°54' W 075°12'0 0.0
2018-Apr-18 11:00N 39°54' W 075°12'0 0.0
2018-Apr-18 10:31N 39°54' W 075°12'0 0.0
2018-Apr-18 10:00N 39°54' W 075°12'0 0.3
2018-Apr-18 09:30N 39°54' W 075°12'3 5.0
2018-Apr-18 09:00N 39°52' W 075°14'3 6.1
2018-Apr-18 08:30N 39°51' W 075°18'3 6.5
2018-Apr-18 08:00N 39°50' W 075°22'2 3.9
2018-Apr-18 07:30N 39°49' W 075°24'0 0.0
2018-Apr-18 07:00N 39°49' W 075°24'1 2.2
2018-Apr-18 06:30N 39°50' W 075°23'0 0.0
2018-Apr-18 06:00N 39°50' W 075°23'  
2018-Apr-14 19:00N 39°50' W 075°23'5 9.1
2018-Apr-14 18:30N 39°51' W 075°17'5 9.2
2018-Apr-14 18:00N 39°53' W 075°12'1 1.1
2018-Apr-14 17:30N 39°53' W 075°11'0 0.3
2018-Apr-14 17:00N 39°53' W 075°11'4 7.6
2018-Apr-14 16:31N 39°51' W 075°15'510.6
2018-Apr-14 16:00N 39°50' W 075°22'1 0.1
2018-Apr-14 06:46N 39°50' W 075°23'2 5.5
2018-Apr-14 06:30N 39°49' W 075°25'1 1.1
2018-Apr-14 06:00N 39°48' W 075°25'0 0.1
2018-Apr-14 05:30N 39°48' W 075°25'1 1.2
2018-Apr-14 05:00N 39°49' W 075°24'0 0.3
2018-Apr-14 04:30N 39°49' W 075°24'1 2.5
2018-Apr-14 04:00N 39°50' W 075°23'0 0.0
2018-Apr-14 03:30N 39°50' W 075°23'  

Dump ship's entire track history